createdAt,value
2017-07-14T00:01:50.221Z,37.75
2017-07-14T00:04:16.888Z,40.33
2017-07-14T00:06:43.580Z,46.85
2017-07-14T00:09:10.260Z,37.58
2017-07-14T00:11:36.964Z,36.60
2017-07-14T00:14:03.636Z,38.85
2017-07-14T00:16:30.340Z,33.00
2017-07-14T00:18:57.016Z,29.30
2017-07-14T00:21:23.712Z,28.23
2017-07-14T00:23:50.384Z,29.73
2017-07-14T00:26:17.084Z,28.80
2017-07-14T00:28:43.756Z,26.77
2017-07-14T00:31:10.428Z,25.05
2017-07-14T00:33:37.103Z,26.33
2017-07-14T00:36:03.777Z,22.90
2017-07-14T00:38:30.443Z,21.77
2017-07-14T00:40:57.116Z,20.55
2017-07-14T00:43:23.811Z,13.98
2017-07-14T00:45:50.484Z,15.10
2017-07-14T00:48:17.179Z,17.25
2017-07-14T00:50:43.844Z,16.70
2017-07-14T00:53:10.545Z,17.30
2017-07-14T00:55:37.226Z,17.45
2017-07-14T00:58:03.924Z,17.10
2017-07-14T01:00:30.592Z,16.27
2017-07-14T01:02:57.279Z,13.70
2017-07-14T01:05:23.949Z,14.65
2017-07-14T01:07:50.645Z,13.62
2017-07-14T01:10:17.316Z,13.80
2017-07-14T01:12:44.012Z,13.75
2017-07-14T01:15:10.680Z,13.27
2017-07-14T01:17:37.376Z,12.88
2017-07-14T01:20:04.056Z,13.15
2017-07-14T01:22:30.742Z,14.00
2017-07-14T01:24:57.411Z,11.90
2017-07-14T01:27:24.112Z,12.90
2017-07-14T01:29:50.784Z,11.07
2017-07-14T01:32:17.483Z,11.57
2017-07-14T01:34:44.153Z,12.23
2017-07-14T01:37:10.848Z,12.30
2017-07-14T01:39:37.519Z,11.00
2017-07-14T01:42:04.225Z,11.25
2017-07-14T01:44:30.896Z,11.82
2017-07-14T01:46:57.869Z,10.48
2017-07-14T01:49:24.531Z,11.65
2017-07-14T01:51:51.200Z,10.80
2017-07-14T01:54:17.868Z,13.65
2017-07-14T01:56:44.545Z,11.45
2017-07-14T01:59:11.211Z,12.90
2017-07-14T02:01:37.880Z,12.40
2017-07-14T02:04:04.548Z,11.82
2017-07-14T02:06:31.231Z,11.88
2017-07-14T02:08:57.899Z,12.77
2017-07-14T02:11:24.572Z,12.77
2017-07-14T02:13:51.268Z,13.70
2017-07-14T02:16:17.944Z,13.57
2017-07-14T02:18:44.643Z,12.40
2017-07-14T02:21:11.316Z,13.57
2017-07-14T02:23:38.009Z,11.82
2017-07-14T02:26:04.674Z,11.60
2017-07-14T02:28:31.370Z,12.25
2017-07-14T02:30:58.036Z,12.90
2017-07-14T02:33:24.729Z,12.45
2017-07-14T02:35:51.400Z,13.05
2017-07-14T02:38:18.104Z,12.75
2017-07-14T02:40:44.773Z,14.02
2017-07-14T02:43:11.463Z,13.60
2017-07-14T02:45:38.145Z,12.25
2017-07-14T02:48:04.840Z,12.10
2017-07-14T02:50:31.509Z,13.20
2017-07-14T02:52:58.208Z,13.48
2017-07-14T02:55:24.875Z,13.73
2017-07-14T02:57:51.544Z,13.70
2017-07-14T03:00:18.221Z,11.60
2017-07-14T03:02:44.964Z,11.32
2017-07-14T03:05:11.632Z,10.05
2017-07-14T03:07:38.301Z,10.10
2017-07-14T03:10:04.961Z,9.25
2017-07-14T03:12:31.634Z,9.30
2017-07-14T03:14:58.298Z,6.65
2017-07-14T03:17:24.975Z,7.28
2017-07-14T03:19:51.640Z,7.05
2017-07-14T03:22:18.300Z,6.47
2017-07-14T03:24:44.969Z,7.20
2017-07-14T03:27:11.630Z,7.35
2017-07-14T03:29:38.304Z,7.25
2017-07-14T03:32:05.012Z,7.53
2017-07-14T03:34:33.523Z,6.72
2017-07-14T03:37:00.184Z,6.97
2017-07-14T03:39:26.849Z,7.12
2017-07-14T03:41:53.508Z,6.50
2017-07-14T03:44:20.172Z,6.62
2017-07-14T03:46:46.836Z,7.10
2017-07-14T03:49:13.517Z,6.75
2017-07-14T03:51:40.185Z,6.47
2017-07-14T03:54:06.872Z,6.65
2017-07-14T03:56:33.531Z,6.60
2017-07-14T03:59:00.215Z,7.00
2017-07-14T04:01:26.880Z,6.93
2017-07-14T04:03:53.572Z,6.35
2017-07-14T04:06:20.240Z,6.70
2017-07-14T04:08:46.937Z,6.25
2017-07-14T04:11:13.597Z,7.00
2017-07-14T04:13:40.262Z,6.95
2017-07-14T04:16:06.924Z,6.10
2017-07-14T04:18:33.584Z,6.72
2017-07-14T04:21:00.259Z,7.05
2017-07-14T04:23:26.919Z,6.95
2017-07-14T04:25:53.581Z,6.47
2017-07-14T04:28:20.583Z,6.68
2017-07-14T04:30:47.259Z,7.85
2017-07-14T04:33:13.924Z,7.30
2017-07-14T04:35:40.591Z,8.02
2017-07-14T04:38:07.261Z,6.53
2017-07-14T04:40:33.932Z,7.43
2017-07-14T04:43:00.597Z,6.72
2017-07-14T04:45:27.261Z,5.78
2017-07-14T04:47:53.925Z,6.75
2017-07-14T04:50:20.592Z,5.12
2017-07-14T04:52:47.251Z,5.55
2017-07-14T04:55:13.912Z,5.78
2017-07-14T04:57:40.572Z,5.28
2017-07-14T05:00:07.232Z,5.40
2017-07-14T05:02:33.925Z,5.85
2017-07-14T05:05:00.583Z,5.25
2017-07-14T05:07:27.245Z,5.45
2017-07-14T05:09:54.017Z,5.30
2017-07-14T05:12:20.680Z,5.85
2017-07-14T05:14:47.344Z,5.75
2017-07-14T05:17:14.007Z,5.80
2017-07-14T05:19:40.675Z,5.18
2017-07-14T05:22:07.331Z,4.60
2017-07-14T05:24:34.027Z,5.85
2017-07-14T05:27:00.694Z,5.65
2017-07-14T05:29:27.357Z,5.07
2017-07-14T05:31:54.029Z,4.78
2017-07-14T05:34:20.692Z,5.18
2017-07-14T05:36:47.381Z,5.70
2017-07-14T05:39:14.049Z,4.70
2017-07-14T05:41:40.739Z,4.53
2017-07-14T05:44:07.404Z,5.40
2017-07-14T05:46:34.095Z,4.50
2017-07-14T05:49:00.756Z,4.70
2017-07-14T05:51:27.441Z,4.40
2017-07-14T05:53:54.101Z,4.60
2017-07-14T05:56:20.792Z,4.47
2017-07-14T05:58:47.448Z,4.40
2017-07-14T06:01:14.131Z,4.07
2017-07-14T06:03:40.792Z,4.07
2017-07-14T06:06:07.484Z,4.33
2017-07-14T06:08:34.155Z,4.17
2017-07-14T06:11:00.844Z,4.00
2017-07-14T06:13:27.509Z,4.40
2017-07-14T06:15:54.191Z,4.10
2017-07-14T06:18:20.852Z,4.40
2017-07-14T06:20:47.542Z,3.87
2017-07-14T06:23:14.200Z,4.73
2017-07-14T06:25:40.892Z,4.40
2017-07-14T06:28:07.560Z,4.60
2017-07-14T06:30:34.244Z,4.33
2017-07-14T06:33:00.992Z,4.60
2017-07-14T06:35:27.696Z,4.00
2017-07-14T06:37:54.364Z,4.10
2017-07-14T06:40:21.029Z,4.03
2017-07-14T06:42:47.693Z,4.27
2017-07-14T06:45:14.357Z,4.00
2017-07-14T06:47:41.040Z,4.10
2017-07-14T06:50:07.696Z,3.90
2017-07-14T06:52:34.359Z,3.87
2017-07-14T06:55:01.021Z,4.00
2017-07-14T06:57:27.708Z,3.87
2017-07-14T06:59:54.368Z,3.63
2017-07-14T07:02:21.061Z,4.20
2017-07-14T07:04:47.726Z,3.67
2017-07-14T07:07:14.409Z,3.50
2017-07-14T07:09:41.070Z,3.27
2017-07-14T07:12:07.755Z,4.00
2017-07-14T07:14:34.420Z,3.47
2017-07-14T07:17:01.114Z,3.30
2017-07-14T07:19:27.778Z,3.93
2017-07-14T07:21:54.469Z,3.57
2017-07-14T07:24:21.233Z,3.33
2017-07-14T07:26:47.929Z,3.67
2017-07-14T07:29:14.596Z,4.10
2017-07-14T07:31:41.282Z,4.27
2017-07-14T07:34:08.010Z,3.27
2017-07-14T07:36:34.697Z,3.53
2017-07-14T07:39:01.360Z,3.40
2017-07-14T07:41:28.060Z,3.60
2017-07-14T07:43:54.725Z,3.40
2017-07-14T07:46:27.245Z,4.00
2017-07-14T07:48:59.753Z,3.47
2017-07-14T07:51:26.453Z,4.10
2017-07-14T07:53:53.133Z,3.80
2017-07-14T07:56:19.814Z,3.77
2017-07-14T07:58:46.481Z,3.63
2017-07-14T08:01:13.157Z,3.53
2017-07-14T08:03:39.826Z,3.43
2017-07-14T08:06:06.490Z,3.83
2017-07-14T08:08:33.153Z,3.77
2017-07-14T08:10:59.818Z,3.80
2017-07-14T08:13:26.480Z,3.60
2017-07-14T08:15:53.156Z,3.50
2017-07-14T08:18:19.815Z,3.50
2017-07-14T08:20:46.494Z,3.57
2017-07-14T08:23:13.151Z,3.67
2017-07-14T08:25:39.813Z,3.77
2017-07-14T08:28:06.476Z,3.63
2017-07-14T08:30:33.144Z,3.40
2017-07-14T08:32:59.811Z,3.37
2017-07-14T08:35:26.479Z,3.37
2017-07-14T08:37:53.141Z,3.30
2017-07-14T08:40:19.808Z,3.90
2017-07-14T08:42:46.472Z,3.10
2017-07-14T08:45:13.132Z,3.90
2017-07-14T08:47:39.816Z,3.37
2017-07-14T08:50:06.488Z,3.80
2017-07-14T08:52:33.175Z,3.40
2017-07-14T08:54:59.840Z,3.10
2017-07-14T08:57:26.531Z,3.23
2017-07-14T08:59:53.197Z,3.30
2017-07-14T09:02:19.892Z,3.27
2017-07-14T09:04:46.553Z,3.77
2017-07-14T09:07:13.264Z,3.27
2017-07-14T09:09:39.927Z,3.30
2017-07-14T09:12:06.593Z,3.27
2017-07-14T09:14:33.255Z,3.30
2017-07-14T09:16:59.914Z,3.60
2017-07-14T09:19:26.572Z,3.40
2017-07-14T09:21:53.241Z,3.80
2017-07-14T09:24:19.920Z,3.40
2017-07-14T09:26:46.589Z,3.60
2017-07-14T09:29:13.270Z,4.10
2017-07-14T09:31:39.932Z,3.40
2017-07-14T09:34:06.593Z,3.20
2017-07-14T09:36:33.259Z,3.47
2017-07-14T09:38:59.924Z,3.37
2017-07-14T09:41:26.593Z,3.60
2017-07-14T09:43:53.258Z,3.20
2017-07-14T09:46:19.917Z,3.60
2017-07-14T09:48:46.593Z,3.93
2017-07-14T09:51:13.252Z,3.83
2017-07-14T09:53:39.912Z,3.87
2017-07-14T09:56:06.589Z,4.10
2017-07-14T09:58:33.256Z,4.00
2017-07-14T10:00:59.926Z,4.20
2017-07-14T10:03:26.585Z,3.87
2017-07-14T10:05:53.253Z,4.50
2017-07-14T10:08:19.924Z,4.40
2017-07-14T10:10:46.579Z,4.20
2017-07-14T10:13:13.265Z,5.20
2017-07-14T10:15:39.929Z,4.60
2017-07-14T10:18:06.592Z,5.10
2017-07-14T10:20:33.264Z,4.60
2017-07-14T10:22:59.931Z,4.50
2017-07-14T10:25:26.592Z,4.70
2017-07-14T10:27:53.269Z,4.97
2017-07-14T10:30:19.940Z,5.30
2017-07-14T10:32:46.604Z,5.07
2017-07-14T10:35:13.276Z,4.90
2017-07-14T10:37:39.944Z,5.00
2017-07-14T10:40:06.610Z,5.20
2017-07-14T10:42:33.284Z,4.90
2017-07-14T10:44:59.968Z,4.83
2017-07-14T10:47:26.641Z,4.80
2017-07-14T10:49:53.329Z,4.73
2017-07-14T10:52:19.998Z,4.90
2017-07-14T10:54:46.684Z,4.40
2017-07-14T10:57:13.353Z,5.20
2017-07-14T10:59:40.044Z,4.57
2017-07-14T11:02:06.719Z,5.10
2017-07-14T11:04:33.407Z,5.70
2017-07-14T11:07:00.064Z,5.40
2017-07-14T11:09:26.757Z,5.63
2017-07-14T11:11:53.421Z,5.53
2017-07-14T11:14:20.107Z,5.00
2017-07-14T11:16:46.767Z,5.30
2017-07-14T11:19:13.452Z,5.43
2017-07-14T11:21:40.121Z,5.27
2017-07-14T11:24:06.887Z,5.10
2017-07-14T11:26:33.551Z,5.50
2017-07-14T11:29:00.202Z,5.77
2017-07-14T11:31:26.865Z,5.97
2017-07-14T11:33:53.524Z,5.53
2017-07-14T11:36:20.181Z,5.10
2017-07-14T11:38:46.854Z,6.20
2017-07-14T11:41:13.542Z,5.37
2017-07-14T11:43:40.206Z,5.43
2017-07-14T11:46:06.901Z,5.37
2017-07-14T11:48:33.563Z,5.07
2017-07-14T11:51:00.580Z,5.20
2017-07-14T11:53:27.236Z,5.67
2017-07-14T11:55:53.929Z,5.87
2017-07-14T11:58:20.593Z,5.40
2017-07-14T12:00:47.321Z,5.20
2017-07-14T12:03:13.989Z,5.50
2017-07-14T12:05:40.684Z,5.67
2017-07-14T12:08:07.351Z,5.50
2017-07-14T12:10:34.040Z,5.80
2017-07-14T12:13:00.704Z,5.93
2017-07-14T12:15:27.390Z,5.20
2017-07-14T12:17:54.062Z,5.50
2017-07-14T12:20:20.763Z,5.37
2017-07-14T12:22:47.440Z,4.93
2017-07-14T12:25:14.127Z,6.10
2017-07-14T12:27:40.787Z,4.87
2017-07-14T12:30:07.484Z,5.20
2017-07-14T12:32:34.155Z,5.00
2017-07-14T12:35:00.849Z,5.40
2017-07-14T12:37:27.515Z,4.70
2017-07-14T12:39:54.205Z,5.73
2017-07-14T12:42:20.873Z,5.40
2017-07-14T12:44:47.538Z,6.17
2017-07-14T12:47:14.206Z,5.50
2017-07-14T12:49:40.871Z,5.13
2017-07-14T12:52:07.556Z,5.50
2017-07-14T12:54:34.213Z,5.80
2017-07-14T12:57:00.876Z,5.83
2017-07-14T12:59:27.536Z,5.00
2017-07-14T13:01:54.201Z,5.63
2017-07-14T13:04:20.861Z,5.70
2017-07-14T13:06:47.533Z,5.27
2017-07-14T13:09:14.201Z,5.00
2017-07-14T13:11:40.869Z,5.90
2017-07-14T13:14:07.540Z,5.40
2017-07-14T13:16:34.200Z,5.10
2017-07-14T13:19:00.862Z,5.10
2017-07-14T13:21:27.520Z,5.30
2017-07-14T13:23:54.192Z,4.90
2017-07-14T13:26:20.873Z,5.37
2017-07-14T13:28:47.532Z,5.40
2017-07-14T13:31:14.217Z,5.47
2017-07-14T13:33:40.887Z,5.30
2017-07-14T13:36:07.579Z,5.90
2017-07-14T13:38:34.244Z,5.13
2017-07-14T13:41:00.936Z,5.73
2017-07-14T13:43:27.601Z,4.60
2017-07-14T13:45:54.298Z,5.30
2017-07-14T13:48:20.957Z,4.80
2017-07-14T13:50:47.643Z,4.80
2017-07-14T13:53:14.307Z,5.10
2017-07-14T13:55:41.004Z,4.73
2017-07-14T13:58:07.673Z,5.20
2017-07-14T14:00:34.341Z,4.00
2017-07-14T14:03:01.005Z,4.80
2017-07-14T14:05:27.668Z,4.47
2017-07-14T14:07:54.328Z,4.00
2017-07-14T14:10:20.990Z,4.97
2017-07-14T14:12:47.653Z,4.47
2017-07-14T14:15:14.317Z,4.63
2017-07-14T14:17:40.984Z,4.30
2017-07-14T14:20:07.649Z,4.63
2017-07-14T14:22:34.330Z,4.40
2017-07-14T14:25:00.992Z,4.47
2017-07-14T14:27:27.694Z,4.27
2017-07-14T14:29:54.353Z,4.17
2017-07-14T14:32:21.017Z,4.53
2017-07-14T14:34:47.681Z,4.47
2017-07-14T14:37:14.341Z,4.40
2017-07-14T14:39:41.009Z,4.53
2017-07-14T14:42:07.668Z,4.17
2017-07-14T14:44:34.338Z,4.60
2017-07-14T14:47:00.996Z,5.20
2017-07-14T14:49:27.668Z,4.70
2017-07-14T14:51:54.328Z,4.30
2017-07-14T14:54:20.987Z,4.40
2017-07-14T14:56:47.644Z,4.70
2017-07-14T14:59:14.324Z,4.70
2017-07-14T15:01:40.988Z,4.20
2017-07-14T15:04:07.657Z,4.03
2017-07-14T15:06:34.316Z,4.93
2017-07-14T15:09:00.977Z,4.70
2017-07-14T15:11:27.660Z,4.70
2017-07-14T15:13:54.320Z,4.50
2017-07-14T15:16:21.008Z,4.80
2017-07-14T15:18:47.677Z,4.27
2017-07-14T15:21:14.342Z,4.40
2017-07-14T15:23:41.159Z,4.53
2017-07-14T15:26:07.820Z,5.03
2017-07-14T15:28:34.492Z,4.43
2017-07-14T15:31:01.151Z,5.00
2017-07-14T15:33:27.840Z,4.63
2017-07-14T15:35:54.500Z,4.73
2017-07-14T15:38:21.188Z,5.57
2017-07-14T15:40:47.854Z,6.17
2017-07-14T15:43:14.524Z,5.03
2017-07-14T15:45:41.193Z,5.73
2017-07-14T15:48:07.880Z,5.90
2017-07-14T15:50:34.535Z,5.90
2017-07-14T15:53:01.220Z,6.00
2017-07-14T15:55:27.882Z,6.53
2017-07-14T15:57:54.568Z,5.90
2017-07-14T16:00:21.228Z,6.60
2017-07-14T16:02:47.913Z,6.80
2017-07-14T16:05:14.572Z,7.40
2017-07-14T16:07:41.258Z,7.00
2017-07-14T16:10:07.920Z,8.17
2017-07-14T16:12:34.608Z,8.83
2017-07-14T16:15:01.271Z,8.60
2017-07-14T16:17:27.967Z,8.07
2017-07-14T16:19:54.643Z,7.90
2017-07-14T16:22:21.331Z,8.43
2017-07-14T16:24:48.000Z,7.72
2017-07-14T16:27:14.744Z,7.50
2017-07-14T16:29:41.416Z,7.22
2017-07-14T16:32:08.372Z,7.60
2017-07-14T16:34:35.044Z,7.35
2017-07-14T16:37:01.715Z,6.70
2017-07-14T16:39:28.381Z,6.85
2017-07-14T16:41:55.048Z,7.50
2017-07-14T16:44:21.715Z,7.50
2017-07-14T16:46:48.379Z,6.20
2017-07-14T16:49:15.081Z,7.15
2017-07-14T16:51:41.748Z,6.93
2017-07-14T16:54:08.409Z,7.07
2017-07-14T16:56:35.072Z,6.70
2017-07-14T16:59:01.731Z,7.68
2017-07-14T17:01:28.397Z,6.72
2017-07-14T17:03:55.056Z,6.50
2017-07-14T17:06:21.720Z,6.37
2017-07-14T17:08:48.383Z,7.60
2017-07-14T17:11:15.073Z,9.98
2017-07-14T17:13:41.746Z,11.38
2017-07-14T17:16:08.421Z,10.95
2017-07-14T17:18:35.095Z,11.52
2017-07-14T17:21:01.767Z,11.60
2017-07-14T17:23:28.435Z,11.60
2017-07-14T17:25:55.108Z,10.15
2017-07-14T17:28:21.772Z,9.43
2017-07-14T17:30:48.440Z,9.60
2017-07-14T17:33:15.137Z,9.95
2017-07-14T17:35:41.791Z,9.15
2017-07-14T17:38:08.454Z,8.85
2017-07-14T17:40:35.119Z,9.30
2017-07-14T17:43:01.784Z,9.85
2017-07-14T17:45:28.449Z,7.78
2017-07-14T17:47:55.152Z,8.63
2017-07-14T17:50:21.826Z,9.70
2017-07-14T17:52:48.524Z,9.30
2017-07-14T17:55:15.197Z,10.40
2017-07-14T17:57:41.868Z,8.73
2017-07-14T18:00:08.572Z,11.38
2017-07-14T18:02:35.248Z,9.40
2017-07-14T18:05:01.952Z,8.68
2017-07-14T18:07:28.617Z,8.73
2017-07-14T18:09:55.316Z,7.00
2017-07-14T18:12:21.977Z,7.85
2017-07-14T18:14:48.676Z,8.40
2017-07-14T18:17:15.339Z,8.40
2017-07-14T18:19:42.020Z,7.00
2017-07-14T18:22:08.675Z,7.18
2017-07-14T18:24:35.356Z,7.82
2017-07-14T18:27:02.011Z,6.95
2017-07-14T18:29:28.708Z,7.30
2017-07-14T18:31:55.369Z,6.82
2017-07-14T18:34:22.052Z,7.10
2017-07-14T18:36:48.713Z,7.95
2017-07-14T18:39:15.397Z,7.00
2017-07-14T18:41:42.057Z,7.20
2017-07-14T18:44:08.753Z,7.40
2017-07-14T18:46:35.424Z,7.37
2017-07-14T18:49:02.119Z,7.45
2017-07-14T18:51:28.780Z,9.27
2017-07-14T18:53:55.468Z,12.63
2017-07-14T18:56:22.144Z,10.68
2017-07-14T18:58:48.830Z,9.95
2017-07-14T19:01:15.677Z,8.55
2017-07-14T19:03:42.364Z,8.95
2017-07-14T19:06:09.023Z,7.62
2017-07-14T19:08:35.716Z,7.55
2017-07-14T19:11:02.380Z,7.97
2017-07-14T19:13:29.052Z,8.05
2017-07-14T19:15:55.725Z,7.20
2017-07-14T19:18:22.387Z,7.03
2017-07-14T19:20:49.045Z,6.90
2017-07-14T19:23:15.710Z,8.20
2017-07-14T19:25:42.373Z,7.62
2017-07-14T19:28:09.033Z,8.40
2017-07-14T19:30:35.692Z,7.40
2017-07-14T19:33:02.359Z,7.50
2017-07-14T19:35:29.045Z,9.07
2017-07-14T19:37:55.707Z,8.73
2017-07-14T19:40:22.398Z,9.70
2017-07-14T19:42:49.069Z,10.60
2017-07-14T19:45:15.760Z,8.35
2017-07-14T19:47:42.432Z,9.35
2017-07-14T19:50:09.128Z,10.70
2017-07-14T19:52:35.795Z,11.12
2017-07-14T19:55:02.483Z,13.75
2017-07-14T19:57:29.151Z,12.32
2017-07-14T19:59:55.840Z,12.63
2017-07-14T20:02:22.508Z,12.98
2017-07-14T20:04:49.204Z,14.45
2017-07-14T20:07:15.880Z,13.85
2017-07-14T20:09:42.571Z,12.27
2017-07-14T20:12:09.232Z,13.00
2017-07-14T20:14:35.932Z,14.40
2017-07-14T20:17:02.605Z,12.98
2017-07-14T20:19:29.305Z,14.35
2017-07-14T20:21:55.983Z,13.50
2017-07-14T20:24:22.808Z,15.13
2017-07-14T20:26:49.479Z,15.73
2017-07-14T20:29:16.143Z,14.43
2017-07-14T20:31:42.807Z,15.18
2017-07-14T20:34:09.476Z,15.45
2017-07-14T20:36:36.144Z,16.80
2017-07-14T20:39:02.812Z,14.98
2017-07-14T20:41:29.482Z,17.58
2017-07-14T20:43:56.153Z,18.50
2017-07-14T20:46:22.819Z,18.35
2017-07-14T20:48:49.489Z,17.42
2017-07-14T20:51:16.150Z,16.42
2017-07-14T20:53:42.821Z,17.65
2017-07-14T20:56:09.490Z,19.23
2017-07-14T20:58:36.160Z,18.17
2017-07-14T21:01:02.851Z,19.45
2017-07-14T21:03:29.527Z,17.55
2017-07-14T21:05:56.212Z,19.65
2017-07-14T21:08:22.881Z,19.12
2017-07-14T21:10:49.548Z,18.48
2017-07-14T21:13:16.215Z,17.67
2017-07-14T21:15:42.913Z,18.62
2017-07-14T21:18:10.554Z,18.90
2017-07-14T21:20:37.248Z,19.80
2017-07-14T21:23:03.916Z,21.15
2017-07-14T21:25:30.609Z,20.12
2017-07-14T21:27:57.280Z,21.30
2017-07-14T21:30:23.973Z,18.42
2017-07-14T21:32:50.647Z,20.42
2017-07-14T21:35:17.340Z,20.45
2017-07-14T21:37:44.009Z,20.80
2017-07-14T21:40:10.704Z,15.77
2017-07-14T21:42:37.365Z,21.17
2017-07-14T21:45:04.064Z,21.55
2017-07-14T21:47:30.728Z,21.08
2017-07-14T21:49:57.395Z,22.60
2017-07-14T21:52:24.063Z,21.00
2017-07-14T21:54:50.734Z,17.92
2017-07-14T21:57:17.407Z,19.80
2017-07-14T21:59:44.081Z,24.95
2017-07-14T22:02:10.756Z,22.17
2017-07-14T22:04:37.516Z,19.50
2017-07-14T22:07:04.184Z,21.08
2017-07-14T22:09:30.856Z,23.60
2017-07-14T22:11:57.529Z,23.15
2017-07-14T22:14:24.204Z,21.25
2017-07-14T22:16:51.696Z,21.50
2017-07-14T22:19:18.368Z,19.73
2017-07-14T22:21:45.040Z,22.10
2017-07-14T22:24:11.712Z,19.73
2017-07-14T22:26:38.376Z,17.25
2017-07-14T22:29:05.048Z,17.25
2017-07-14T22:31:31.724Z,18.00
2017-07-14T22:33:58.391Z,16.27
2017-07-14T22:36:25.064Z,14.98
2017-07-14T22:38:51.748Z,13.43
2017-07-14T22:41:18.415Z,15.00
2017-07-14T22:43:45.084Z,14.55
2017-07-14T22:46:11.761Z,13.98
2017-07-14T22:48:38.432Z,14.70
2017-07-14T22:51:05.142Z,14.27
2017-07-14T22:53:31.831Z,11.90
2017-07-14T22:55:58.523Z,12.18
2017-07-14T22:58:25.205Z,11.80
2017-07-14T23:00:51.904Z,12.70
2017-07-14T23:03:18.577Z,12.43
2017-07-14T23:05:45.248Z,12.07
2017-07-14T23:08:11.916Z,11.27
2017-07-14T23:10:38.588Z,11.52
2017-07-14T23:13:05.260Z,10.38
2017-07-14T23:15:31.931Z,10.15
2017-07-14T23:17:58.601Z,10.25
2017-07-14T23:20:25.260Z,9.15
2017-07-14T23:22:51.923Z,9.93
2017-07-14T23:25:18.596Z,8.48
2017-07-14T23:27:45.254Z,8.63
2017-07-14T23:30:11.924Z,8.98
2017-07-14T23:32:38.599Z,8.25
2017-07-14T23:35:05.263Z,8.85
2017-07-14T23:37:31.928Z,8.15
2017-07-14T23:39:58.592Z,8.60
2017-07-14T23:42:25.251Z,7.95
2017-07-14T23:44:51.919Z,7.93
2017-07-14T23:47:18.829Z,7.90
2017-07-14T23:49:45.493Z,7.75
2017-07-14T23:52:12.152Z,8.10
2017-07-14T23:54:38.818Z,8.50
2017-07-14T23:57:05.476Z,7.65
2017-07-14T23:59:32.144Z,8.98
